Terminal Aerodrome Forecast
Issued by NWS Sioux Falls, SD

Home | Current Version | Previous Version | Text Only | Print | Product List | Glossary On
Versions: 1 2 3 4 5 6 7 8 9 10 11 12 13
000
FTUS43 KFSD 181124
TAFSUX
TAF
KSUX 181124Z 1812/1912 14006KT P6SM BKN250
     FM181400 17006KT P6SM BKN140
     FM181900 18010KT P6SM BKN080
     FM182200 14008KT P6SM VCTS BKN060CB
     FM190200 11007KT P6SM BKN080
     FM190500 09006KT P6SM BKN110=

USA.gov is the U.S. government's official web portal to all federal, state and local government web resources and services.